Akk, Virginia
Current Conditions -  °F | °C
As of 10:55 PM on Thursday 27 Nov 2014 (Local Time) from KFYJ Reporting Station
Clear Clear  
Wind Chill: 38°   Ceiling: Unl
Heat Index: 38°   Visibility: 10mi
Dew Point: 32°   Wind: 0mph
Humidity: 78%   Direction: NA
Pressure: 30.21"   Gusts: NA
Location:  37.4383°N, 76.5764°W
Report Text: KFYJ 280355Z AUTO 00000KT 10SM CLR 04/00 A3021 RMK AO2 T00350000
Loading
Personal Weather Stations






























Interactive Weather Map New forecast layout! Learn more

10-Day Weather Forecast

Advertisements
Track Severe Weather on mobile